createdAt,value
2018-05-15T00:02:23.069Z,99.30
2018-05-15T00:04:50.553Z,99.20
2018-05-15T00:07:18.058Z,99.30
2018-05-15T00:09:45.545Z,99.30
2018-05-15T00:12:13.052Z,99.40
2018-05-15T00:14:41.310Z,99.40
2018-05-15T00:17:08.805Z,99.40
2018-05-15T00:19:37.338Z,99.50
2018-05-15T00:22:04.841Z,99.40
2018-05-15T00:24:33.094Z,99.50
2018-05-15T00:27:00.589Z,99.50
2018-05-15T00:29:28.070Z,99.50
2018-05-15T00:31:55.569Z,99.40
2018-05-15T00:34:23.053Z,99.40
2018-05-15T00:36:51.333Z,99.60
2018-05-15T00:39:19.580Z,99.80
2018-05-15T00:41:47.113Z,99.80
2018-05-15T00:44:14.647Z,99.90
2018-05-15T00:46:42.108Z,99.90
2018-05-15T00:49:09.603Z,99.90
2018-05-15T00:51:37.104Z,99.90
2018-05-15T00:54:05.358Z,99.90
2018-05-15T00:56:32.859Z,99.90
2018-05-15T00:59:00.355Z,99.90
2018-05-15T01:01:28.632Z,99.90
2018-05-15T01:03:56.117Z,99.90
2018-05-15T01:06:23.623Z,99.90
2018-05-15T01:08:51.179Z,99.90
2018-05-15T01:11:18.702Z,99.90
2018-05-15T01:13:46.953Z,99.90
2018-05-15T01:16:14.432Z,99.90
2018-05-15T01:18:43.451Z,99.90
2018-05-15T01:21:10.940Z,99.90
2018-05-15T01:23:38.479Z,99.90
2018-05-15T01:26:07.007Z,99.90
2018-05-15T01:28:34.509Z,99.90
2018-05-15T01:31:02.765Z,99.90
2018-05-15T01:33:30.268Z,99.90
2018-05-15T01:35:57.757Z,99.90
2018-05-15T01:38:25.256Z,99.90
2018-05-15T01:40:53.513Z,99.90
2018-05-15T01:43:21.030Z,99.90
2018-05-15T01:45:48.511Z,99.90
2018-05-15T01:48:16.019Z,99.90
2018-05-15T01:50:44.274Z,99.90
2018-05-15T01:53:11.781Z,99.90
2018-05-15T01:55:39.267Z,99.90
2018-05-15T01:58:07.581Z,99.90
2018-05-15T02:00:35.843Z,99.90
2018-05-15T02:03:03.347Z,99.90
2018-05-15T02:05:30.840Z,99.90
2018-05-15T02:07:58.351Z,99.90
2018-05-15T02:10:26.610Z,99.90
2018-05-15T02:12:54.890Z,99.90
2018-05-15T02:15:23.882Z,99.90
2018-05-15T02:17:52.508Z,99.90
2018-05-15T02:20:19.994Z,99.90
2018-05-15T02:22:47.497Z,99.90
2018-05-15T02:25:15.745Z,99.90
2018-05-15T02:27:43.254Z,99.90
2018-05-15T02:30:10.752Z,99.90
2018-05-15T02:32:38.255Z,99.90
2018-05-15T02:35:06.506Z,99.90
2018-05-15T02:37:34.797Z,99.90
2018-05-15T02:40:02.299Z,99.90
2018-05-15T02:42:29.797Z,99.90
2018-05-15T02:44:57.285Z,99.90
2018-05-15T02:47:25.553Z,99.90
2018-05-15T02:49:53.049Z,99.90
2018-05-15T02:52:20.554Z,99.90
2018-05-15T02:54:48.047Z,99.90
2018-05-15T02:57:16.306Z,99.90
2018-05-15T02:59:43.809Z,99.90
2018-05-15T03:02:11.297Z,99.90
2018-05-15T03:04:39.574Z,99.90
2018-05-15T03:07:07.059Z,99.90
2018-05-15T03:09:34.571Z,99.90
2018-05-15T03:12:02.121Z,99.90
2018-05-15T03:14:29.625Z,99.90
2018-05-15T03:16:57.117Z,99.90
2018-05-15T03:19:25.390Z,99.90
2018-05-15T03:21:53.644Z,99.90
2018-05-15T03:24:21.145Z,99.90
2018-05-15T03:26:48.645Z,99.90
2018-05-15T03:29:16.148Z,99.90
2018-05-15T03:31:44.410Z,99.90
2018-05-15T03:34:12.692Z,99.90
2018-05-15T03:36:40.947Z,99.90
2018-05-15T03:39:08.445Z,99.90
2018-05-15T03:41:36.690Z,99.90
2018-05-15T03:44:04.194Z,99.90
2018-05-15T03:46:31.687Z,99.90
2018-05-15T03:48:59.193Z,99.90
2018-05-15T03:51:27.447Z,99.90
2018-05-15T03:53:54.949Z,99.90
2018-05-15T03:56:22.433Z,99.90
2018-05-15T03:58:49.972Z,99.90
2018-05-15T04:01:29.088Z,99.90
2018-05-15T04:04:08.496Z,99.90
2018-05-15T04:06:47.775Z,99.90
2018-05-15T04:09:15.273Z,99.90
2018-05-15T04:11:42.758Z,99.90
2018-05-15T04:14:10.252Z,99.90
2018-05-15T04:16:37.738Z,99.90
2018-05-15T04:19:05.242Z,99.90
2018-05-15T04:21:33.499Z,99.90
2018-05-15T04:24:01.003Z,99.90
2018-05-15T04:26:28.493Z,99.90
2018-05-15T04:28:55.999Z,99.90
2018-05-15T04:31:24.256Z,99.90
2018-05-15T04:33:51.752Z,99.90
2018-05-15T04:36:20.081Z,99.90
2018-05-15T04:38:47.584Z,99.90
2018-05-15T04:41:15.833Z,99.90
2018-05-15T04:43:43.395Z,99.80
2018-05-15T04:46:10.833Z,99.90
2018-05-15T04:48:38.317Z,99.80
2018-05-15T04:51:05.821Z,99.90
2018-05-15T04:53:34.141Z,99.90
2018-05-15T04:56:01.643Z,99.90
2018-05-15T04:58:29.884Z,99.70
2018-05-15T05:00:57.405Z,99.60
2018-05-15T05:03:24.889Z,99.60
2018-05-15T05:05:52.535Z,99.50
2018-05-15T05:08:20.038Z,99.50
2018-05-15T05:10:48.317Z,99.30
2018-05-15T05:13:16.565Z,99.20
2018-05-15T05:15:44.070Z,99.20
2018-05-15T05:18:12.317Z,98.90
2018-05-15T05:20:39.823Z,98.80
2018-05-15T05:23:07.310Z,98.60
2018-05-15T05:25:34.810Z,98.40
2018-05-15T05:28:03.065Z,98.10
2018-05-15T05:30:30.565Z,98.00
2018-05-15T05:32:58.055Z,98.00
2018-05-15T05:35:25.562Z,97.50
2018-05-15T05:37:53.036Z,97.30
2018-05-15T05:40:20.540Z,97.00
2018-05-15T05:42:49.129Z,96.80
2018-05-15T05:45:16.908Z,96.40
2018-05-15T05:47:44.399Z,96.00
2018-05-15T05:50:12.662Z,96.10
2018-05-15T05:52:40.912Z,96.00
2018-05-15T05:55:08.413Z,96.00
2018-05-15T05:57:36.666Z,96.00
2018-05-15T06:00:04.171Z,96.00
2018-05-15T06:02:31.666Z,96.30
2018-05-15T06:04:59.166Z,96.30
2018-05-15T06:07:27.501Z,96.40
2018-05-15T06:09:54.937Z,96.40
2018-05-15T06:12:22.426Z,96.60
2018-05-15T06:14:49.931Z,96.50
2018-05-15T06:17:18.173Z,96.50
2018-05-15T06:19:45.658Z,96.40
2018-05-15T06:22:13.929Z,96.20
2018-05-15T06:24:42.173Z,95.50
2018-05-15T06:27:09.671Z,95.50
2018-05-15T06:29:37.916Z,95.60
2018-05-15T06:32:05.415Z,95.60
2018-05-15T06:34:33.664Z,95.80
2018-05-15T06:37:01.163Z,95.80
2018-05-15T06:39:28.641Z,95.80
2018-05-15T06:41:56.139Z,95.30
2018-05-15T06:44:23.636Z,95.30
2018-05-15T06:46:51.140Z,94.90
2018-05-15T06:49:18.621Z,95.00
2018-05-15T06:51:46.117Z,94.90
2018-05-15T06:54:13.601Z,94.70
2018-05-15T06:56:41.109Z,94.60
2018-05-15T06:59:09.358Z,95.00
2018-05-15T07:01:36.857Z,95.00
2018-05-15T07:04:05.109Z,94.40
2018-05-15T07:06:32.607Z,94.30
2018-05-15T07:09:00.094Z,94.00
2018-05-15T07:11:27.597Z,94.10
2018-05-15T07:13:55.916Z,94.50
2018-05-15T07:16:23.376Z,94.10
2018-05-15T07:18:50.860Z,94.20
2018-05-15T07:21:18.378Z,94.30
2018-05-15T07:23:45.862Z,94.50
2018-05-15T07:26:13.364Z,95.30
2018-05-15T07:28:40.848Z,95.70
2018-05-15T07:31:09.113Z,95.90
2018-05-15T07:33:37.361Z,95.80
2018-05-15T07:36:04.861Z,95.80
2018-05-15T07:38:33.114Z,95.70
2018-05-15T07:41:01.402Z,95.80
2018-05-15T07:43:29.656Z,95.70
2018-05-15T07:45:57.140Z,95.70
2018-05-15T07:48:25.405Z,95.60
2018-05-15T07:50:59.222Z,96.10
2018-05-15T07:53:27.488Z,96.40
2018-05-15T07:55:54.973Z,96.30
2018-05-15T07:58:23.233Z,96.10
2018-05-15T08:00:51.481Z,96.10
2018-05-15T08:03:19.009Z,96.10
2018-05-15T08:05:46.492Z,95.80
2018-05-15T08:08:13.991Z,95.80
2018-05-15T08:10:42.251Z,96.20
2018-05-15T08:13:09.759Z,96.10
2018-05-15T08:15:37.241Z,96.20
2018-05-15T08:18:04.805Z,94.80
2018-05-15T08:20:32.302Z,94.00
2018-05-15T08:22:59.834Z,94.80
2018-05-15T08:25:27.317Z,94.30
2018-05-15T08:27:54.812Z,94.00
2018-05-15T08:30:22.294Z,93.20
2018-05-15T08:32:49.801Z,94.20
2018-05-15T08:35:18.793Z,93.30
2018-05-15T08:37:47.065Z,92.00
2018-05-15T08:40:15.320Z,92.60
2018-05-15T08:42:43.724Z,91.80
2018-05-15T08:45:11.207Z,91.80
2018-05-15T08:47:39.475Z,91.40
2018-05-15T08:50:07.729Z,91.40
2018-05-15T08:52:35.225Z,91.30
2018-05-15T08:55:02.713Z,91.90
2018-05-15T08:57:30.222Z,92.20
2018-05-15T08:59:59.209Z,91.40
2018-05-15T09:02:27.486Z,91.70
2018-05-15T09:04:54.973Z,91.80
2018-05-15T09:07:22.473Z,92.40
2018-05-15T09:09:49.966Z,90.60
2018-05-15T09:12:18.970Z,88.70
2018-05-15T09:14:47.226Z,86.70
2018-05-15T09:17:14.724Z,86.70
2018-05-15T09:19:42.210Z,87.30
2018-05-15T09:22:09.722Z,88.40
2018-05-15T09:24:37.989Z,85.20
2018-05-15T09:27:05.487Z,85.20
2018-05-15T09:29:32.982Z,87.30
2018-05-15T09:32:00.473Z,86.00
2018-05-15T09:34:28.742Z,83.80
2018-05-15T09:36:56.221Z,83.90
2018-05-15T09:39:24.482Z,82.90
2018-05-15T09:41:51.960Z,82.70
2018-05-15T09:44:20.226Z,81.00
2018-05-15T09:46:48.485Z,81.30
2018-05-15T09:49:15.988Z,81.20
2018-05-15T09:51:43.477Z,81.30
2018-05-15T09:54:10.981Z,82.00
2018-05-15T09:56:39.229Z,82.60
2018-05-15T09:59:06.737Z,82.50
2018-05-15T10:01:34.987Z,79.50
2018-05-15T10:04:02.485Z,79.50
2018-05-15T10:06:29.969Z,78.00
2018-05-15T10:08:57.482Z,78.30
2018-05-15T10:11:25.733Z,76.80
2018-05-15T10:13:53.230Z,76.70
2018-05-15T10:16:21.477Z,74.70
2018-05-15T10:18:50.484Z,74.80
2018-05-15T10:21:18.733Z,78.50
2018-05-15T10:23:46.234Z,78.50
2018-05-15T10:26:13.750Z,77.50
2018-05-15T10:28:41.250Z,78.40
2018-05-15T10:31:08.742Z,73.60
2018-05-15T10:33:36.233Z,74.10
2018-05-15T10:36:03.717Z,71.70
2018-05-15T10:38:31.989Z,71.30
2018-05-15T10:41:00.251Z,70.50
2018-05-15T10:43:27.753Z,70.30
2018-05-15T10:45:55.233Z,67.30
2018-05-15T10:48:22.742Z,66.90
2018-05-15T10:50:51.066Z,67.90
2018-05-15T10:53:18.517Z,67.80
2018-05-15T10:55:46.802Z,63.00
2018-05-15T10:58:14.392Z,62.80
2018-05-15T11:00:41.797Z,65.90
2018-05-15T11:03:09.298Z,63.20
2018-05-15T11:05:36.794Z,64.10
2018-05-15T11:08:04.285Z,61.40
2018-05-15T11:10:31.836Z,60.50
2018-05-15T11:12:59.290Z,59.60
2018-05-15T11:15:27.553Z,59.50
2018-05-15T11:17:55.040Z,59.50
2018-05-15T11:20:34.360Z,59.40
2018-05-15T11:23:13.661Z,58.90
2018-05-15T11:25:41.163Z,58.80
2018-05-15T11:28:08.666Z,55.70
2018-05-15T11:30:36.942Z,54.30
2018-05-15T11:33:05.193Z,55.50
2018-05-15T11:35:32.715Z,55.20
2018-05-15T11:38:00.213Z,53.80
2018-05-15T11:40:27.735Z,55.30
2018-05-15T11:42:55.400Z,56.70
2018-05-15T11:45:22.924Z,58.20
2018-05-15T11:47:51.511Z,56.90
2018-05-15T11:50:20.095Z,55.90
2018-05-15T11:52:48.194Z,57.40
2018-05-15T11:55:15.234Z,57.30
2018-05-15T11:57:42.718Z,57.50
2018-05-15T12:00:10.282Z,55.70
2018-05-15T12:02:37.800Z,55.60
2018-05-15T12:05:05.302Z,57.40
2018-05-15T12:07:32.781Z,57.60
2018-05-15T12:10:00.283Z,58.20
2018-05-15T12:12:28.529Z,58.20
2018-05-15T12:14:56.887Z,59.80
2018-05-15T12:17:25.077Z,59.40
2018-05-15T12:19:52.578Z,59.30
2018-05-15T12:22:20.066Z,59.30
2018-05-15T12:24:47.565Z,60.30
2018-05-15T12:27:15.816Z,59.90
2018-05-15T12:29:43.312Z,59.80
2018-05-15T12:32:11.569Z,58.90
2018-05-15T12:34:39.066Z,58.90
2018-05-15T12:37:06.558Z,60.60
2018-05-15T12:39:34.041Z,61.40
2018-05-15T12:42:01.757Z,60.30
2018-05-15T12:44:29.038Z,59.10
2018-05-15T12:46:56.546Z,58.00
2018-05-15T12:49:24.810Z,59.20
2018-05-15T12:51:52.414Z,59.10
2018-05-15T12:54:19.885Z,57.90
2018-05-15T12:56:47.390Z,58.30
2018-05-15T12:59:16.397Z,59.40
2018-05-15T13:01:44.684Z,57.10
2018-05-15T13:04:12.181Z,57.10
2018-05-15T13:06:39.680Z,54.40
2018-05-15T13:09:07.926Z,52.40
2018-05-15T13:11:35.444Z,52.30
2018-05-15T13:14:02.930Z,50.30
2018-05-15T13:16:30.424Z,50.20
2018-05-15T13:18:57.902Z,48.90
2018-05-15T13:21:25.421Z,48.30
2018-05-15T13:23:52.905Z,47.90
2018-05-15T13:26:20.409Z,48.30
2018-05-15T13:28:47.893Z,49.00
2018-05-15T13:31:15.426Z,50.40
2018-05-15T13:33:43.649Z,51.60
2018-05-15T13:36:11.146Z,51.50
2018-05-15T13:38:39.389Z,52.10
2018-05-15T13:41:06.984Z,52.10
2018-05-15T13:43:34.388Z,52.70
2018-05-15T13:46:01.917Z,52.30
2018-05-15T13:48:29.402Z,52.20
2018-05-15T13:50:56.901Z,52.30
2018-05-15T13:53:24.381Z,52.00
2018-05-15T13:55:52.671Z,50.30
2018-05-15T13:58:20.157Z,50.30
2018-05-15T14:00:47.649Z,49.40
2018-05-15T14:03:15.125Z,49.70
2018-05-15T14:05:43.371Z,45.70
2018-05-15T14:08:10.874Z,45.70
2018-05-15T14:10:39.121Z,45.30
2018-05-15T14:13:06.621Z,45.30
2018-05-15T14:15:34.093Z,44.00
2018-05-15T14:18:01.584Z,44.40
2018-05-15T14:20:29.067Z,45.00
2018-05-15T14:22:57.333Z,45.90
2018-05-15T14:25:24.813Z,45.90
2018-05-15T14:27:52.322Z,44.20
2018-05-15T14:30:19.801Z,44.20
2018-05-15T14:32:47.292Z,44.90
2018-05-15T14:35:15.534Z,42.10
2018-05-15T14:37:43.028Z,42.10
2018-05-15T14:40:11.274Z,42.80
2018-05-15T14:42:50.574Z,42.70
2018-05-15T14:45:18.051Z,42.30
2018-05-15T14:47:45.590Z,43.20
2018-05-15T14:50:13.074Z,42.10
2018-05-15T14:52:40.573Z,41.70
2018-05-15T14:55:08.824Z,42.80
2018-05-15T14:57:36.324Z,42.70
2018-05-15T15:00:04.563Z,41.70
2018-05-15T15:02:32.063Z,41.70
2018-05-15T15:04:59.546Z,40.70
2018-05-15T15:07:27.040Z,42.20
2018-05-15T15:09:54.525Z,42.20
2018-05-15T15:12:22.789Z,41.40
2018-05-15T15:14:51.045Z,40.90
2018-05-15T15:17:18.624Z,40.70
2018-05-15T15:19:46.043Z,41.10
2018-05-15T15:22:13.555Z,41.70
2018-05-15T15:24:41.793Z,41.10
2018-05-15T15:27:09.276Z,41.10
2018-05-15T15:29:36.765Z,42.20
2018-05-15T15:32:04.249Z,42.10
2018-05-15T15:34:31.744Z,42.60
2018-05-15T15:36:59.235Z,43.80
2018-05-15T15:39:27.497Z,44.60
2018-05-15T15:41:55.745Z,43.70
2018-05-15T15:44:23.242Z,43.70
2018-05-15T15:46:51.488Z,40.70
2018-05-15T15:49:18.984Z,40.60
2018-05-15T15:51:47.229Z,41.20
2018-05-15T15:54:14.721Z,41.10
2018-05-15T15:56:42.965Z,42.10
2018-05-15T15:59:10.485Z,42.00
2018-05-15T16:01:38.197Z,42.80
2018-05-15T16:04:06.311Z,42.80
2018-05-15T16:06:34.533Z,42.70
2018-05-15T16:09:02.026Z,42.40
2018-05-15T16:11:30.290Z,44.10
2018-05-15T16:13:58.552Z,41.50
2018-05-15T16:16:26.029Z,41.40
2018-05-15T16:18:53.518Z,42.40
2018-05-15T16:21:20.998Z,42.30
2018-05-15T16:23:48.499Z,43.10
2018-05-15T16:26:15.969Z,43.50
2018-05-15T16:28:44.356Z,43.20
2018-05-15T16:31:11.784Z,43.10
2018-05-15T16:33:39.286Z,43.80
2018-05-15T16:36:06.773Z,45.00
2018-05-15T16:38:34.271Z,46.00
2018-05-15T16:41:02.516Z,47.60
2018-05-15T16:43:30.029Z,47.00
2018-05-15T16:45:58.283Z,47.30
2018-05-15T16:48:25.793Z,47.20
2018-05-15T16:50:53.301Z,47.20
2018-05-15T16:53:21.697Z,47.10
2018-05-15T16:55:49.107Z,47.80
2018-05-15T16:58:16.599Z,48.00
2018-05-15T17:00:44.093Z,48.60
2018-05-15T17:03:11.593Z,48.30
2018-05-15T17:05:39.092Z,48.80
2018-05-15T17:08:07.374Z,47.90
2018-05-15T17:10:35.640Z,47.80
2018-05-15T17:13:03.887Z,50.30
2018-05-15T17:15:31.396Z,50.20
2018-05-15T17:17:58.886Z,50.80
2018-05-15T17:20:26.382Z,51.80
2018-05-15T17:22:53.857Z,52.00
2018-05-15T17:25:22.136Z,49.60
2018-05-15T17:27:49.624Z,49.50
2018-05-15T17:30:17.300Z,48.00
2018-05-15T17:32:44.805Z,48.80
2018-05-15T17:35:12.309Z,48.80
2018-05-15T17:37:39.792Z,48.40
2018-05-15T17:40:07.306Z,49.10
2018-05-15T17:42:35.544Z,49.40
2018-05-15T17:45:03.043Z,49.40
2018-05-15T17:47:31.388Z,49.30
2018-05-15T17:49:58.835Z,49.30
2018-05-15T17:52:27.859Z,50.40
2018-05-15T17:54:56.125Z,51.10
2018-05-15T17:57:23.601Z,51.00
2018-05-15T17:59:51.881Z,53.80
2018-05-15T18:02:20.133Z,54.30
2018-05-15T18:04:47.627Z,54.20
2018-05-15T18:07:15.191Z,55.10
2018-05-15T18:09:42.697Z,56.00
2018-05-15T18:12:10.173Z,56.80
2018-05-15T18:14:37.670Z,57.10
2018-05-15T18:17:05.153Z,57.50
2018-05-15T18:19:32.644Z,57.80
2018-05-15T18:22:00.127Z,58.60
2018-05-15T18:24:28.402Z,58.90
2018-05-15T18:26:56.653Z,59.30
2018-05-15T18:29:24.149Z,59.30
2018-05-15T18:31:52.549Z,59.10
2018-05-15T18:34:20.098Z,59.10
2018-05-15T18:36:48.358Z,58.30
2018-05-15T18:39:16.609Z,58.50
2018-05-15T18:41:44.109Z,58.40
2018-05-15T18:44:12.353Z,57.90
2018-05-15T18:46:39.846Z,57.90
2018-05-15T18:49:08.092Z,57.80
2018-05-15T18:51:35.589Z,57.70
2018-05-15T18:54:03.833Z,57.60
2018-05-15T18:56:32.841Z,58.30
2018-05-15T18:59:01.082Z,57.90
2018-05-15T19:01:28.582Z,57.80
2018-05-15T19:03:56.838Z,58.40
2018-05-15T19:06:24.334Z,58.40
2018-05-15T19:08:52.577Z,58.90
2018-05-15T19:11:20.078Z,58.80
2018-05-15T19:13:47.654Z,59.10
2018-05-15T19:16:15.140Z,59.50
2018-05-15T19:18:42.626Z,59.80
2018-05-15T19:21:10.893Z,60.40
2018-05-15T19:23:38.379Z,60.20
2018-05-15T19:26:06.651Z,60.60
2018-05-15T19:28:34.897Z,60.90
2018-05-15T19:31:02.393Z,60.80
2018-05-15T19:33:36.325Z,61.00
2018-05-15T19:36:09.793Z,61.00
2018-05-15T19:38:38.058Z,61.90
2018-05-15T19:41:06.329Z,62.00
2018-05-15T19:43:33.806Z,61.80
2018-05-15T19:46:02.064Z,62.70
2018-05-15T19:48:29.549Z,62.60
2018-05-15T19:50:57.813Z,63.40
2018-05-15T19:53:26.365Z,64.00
2018-05-15T19:55:53.861Z,63.80
2018-05-15T19:58:22.109Z,64.10
2018-05-15T20:00:49.612Z,64.00
2018-05-15T20:03:17.870Z,64.60
2018-05-15T20:05:46.125Z,65.10
2018-05-15T20:08:13.609Z,65.10
2018-05-15T20:10:41.870Z,65.80
2018-05-15T20:13:09.353Z,65.80
2018-05-15T20:15:36.894Z,66.20
2018-05-15T20:18:04.376Z,66.40
2018-05-15T20:20:32.617Z,66.50
2018-05-15T20:23:00.116Z,66.50
2018-05-15T20:25:28.361Z,66.60
2018-05-15T20:27:55.864Z,66.60
2018-05-15T20:30:23.341Z,67.30
2018-05-15T20:32:50.841Z,68.10
2018-05-15T20:35:18.320Z,69.40
2018-05-15T20:37:46.584Z,70.70
2018-05-15T20:40:14.829Z,71.40
2018-05-15T20:42:42.325Z,71.40
2018-05-15T20:45:10.572Z,72.20
2018-05-15T20:47:38.080Z,72.20
2018-05-15T20:50:06.317Z,73.10
2018-05-15T20:52:33.818Z,73.00
2018-05-15T20:55:01.319Z,73.30
2018-05-15T20:57:28.825Z,73.40
2018-05-15T20:59:57.073Z,73.60
2018-05-15T21:02:24.573Z,73.50
2018-05-15T21:04:52.053Z,73.80
2018-05-15T21:07:19.548Z,74.00
2018-05-15T21:09:47.037Z,75.00
2018-05-15T21:12:15.306Z,76.10
2018-05-15T21:14:43.549Z,76.30
2018-05-15T21:17:11.041Z,76.30
2018-05-15T21:19:39.289Z,77.60
2018-05-15T21:22:06.790Z,77.40
2018-05-15T21:24:35.052Z,79.10
2018-05-15T21:27:03.332Z,79.00
2018-05-15T21:29:31.578Z,79.60
2018-05-15T21:31:59.081Z,79.40
2018-05-15T21:34:27.326Z,80.20
2018-05-15T21:36:54.834Z,80.10
2018-05-15T21:39:22.324Z,81.00
2018-05-15T21:41:49.827Z,81.60
2018-05-15T21:44:18.073Z,81.70
2018-05-15T21:46:45.545Z,81.60
2018-05-15T21:49:13.069Z,81.50
2018-05-15T21:51:40.540Z,81.80
2018-05-15T21:54:08.041Z,82.30
2018-05-15T21:56:36.297Z,83.20
2018-05-15T21:59:03.791Z,83.20
2018-05-15T22:01:31.337Z,84.00
2018-05-15T22:03:59.601Z,84.70
2018-05-15T22:06:27.078Z,84.70
2018-05-15T22:08:55.357Z,85.00
2018-05-15T22:11:23.112Z,84.90
2018-05-15T22:14:03.171Z,85.00
2018-05-15T22:16:43.252Z,84.90
2018-05-15T22:19:22.601Z,84.80
2018-05-15T22:22:02.266Z,85.00
2018-05-15T22:24:29.763Z,84.90
2018-05-15T22:26:58.017Z,86.20
2018-05-15T22:29:25.508Z,86.10
2018-05-15T22:31:53.761Z,86.30
2018-05-15T22:34:21.270Z,86.30
2018-05-15T22:36:48.753Z,86.50
2018-05-15T22:39:16.250Z,87.60
2018-05-15T22:41:44.582Z,87.80
2018-05-15T22:44:12.017Z,87.70
2018-05-15T22:46:39.498Z,87.70
2018-05-15T22:49:07.001Z,87.80
2018-05-15T22:51:35.330Z,88.40
2018-05-15T22:54:02.846Z,88.40
2018-05-15T22:56:31.100Z,89.70
2018-05-15T22:58:58.601Z,89.60
2018-05-15T23:01:26.852Z,90.00
2018-05-15T23:03:54.352Z,90.00
2018-05-15T23:06:21.912Z,90.00
2018-05-15T23:08:49.353Z,90.20
2018-05-15T23:11:16.859Z,90.30
2018-05-15T23:13:44.357Z,90.30
2018-05-15T23:16:12.604Z,90.30
2018-05-15T23:18:40.097Z,90.30
2018-05-15T23:21:08.348Z,90.40
2018-05-15T23:23:35.850Z,90.30
2018-05-15T23:26:04.092Z,90.30
2018-05-15T23:28:31.592Z,90.30
2018-05-15T23:30:59.068Z,90.30
2018-05-15T23:33:26.573Z,90.40
2018-05-15T23:35:54.070Z,90.30
2018-05-15T23:38:21.557Z,90.40
2018-05-15T23:40:49.073Z,90.40
2018-05-15T23:43:17.324Z,90.20
2018-05-15T23:45:44.827Z,90.20
2018-05-15T23:48:12.310Z,90.20
2018-05-15T23:50:39.810Z,90.20
2018-05-15T23:53:08.069Z,90.40
2018-05-15T23:55:35.573Z,90.30
2018-05-15T23:58:03.826Z,90.30
